Time;durP1;ratioP1;P1;durP2;ratioP2;P2;SDS_P1;SDS_P2;PMS_P1;PMS_P2;Temp;Humidity;BMP_temperature;BMP_pressure;BME280_temperature;BME280_humidity;BME280_pressure;Samples;Min_cycle;Max_cycle;Signal;HPM_P1;HPM_P2
2023/01/21 00:01:15;;;;;;;12.40;8.13;;;;;;;4.04;100.00;93916.31;5052863;28;20194;-57
2023/01/21 00:03:41;;;;;;;10.30;7.40;;;;;;;3.87;100.00;93904.16;5052771;28;20212;-55
2023/01/21 00:06:08;;;;;;;12.80;8.23;;;;;;;3.81;100.00;93898.75;5052756;28;20223;-56
2023/01/21 00:08:33;;;;;;;9.67;7.93;;;;;;;3.79;100.00;93888.81;5052693;28;20214;-55
2023/01/21 00:11:10;;;;;;;9.30;6.87;;;;;;;3.96;100.00;93898.47;5053058;28;20195;-54
2023/01/21 00:13:36;;;;;;;11.53;7.90;;;;;;;3.92;100.00;93896.31;5051390;28;20563;-55
2023/01/21 00:16:04;;;;;;;10.87;7.43;;;;;;;4.09;100.00;93913.47;5068255;28;20202;-55
2023/01/21 00:18:29;;;;;;;11.47;7.47;;;;;;;3.97;100.00;93900.09;5052490;28;20240;-56
2023/01/21 00:20:55;;;;;;;11.03;8.10;;;;;;;3.95;100.00;93893.56;5052491;28;20229;-56
2023/01/21 00:23:20;;;;;;;11.53;8.03;;;;;;;3.85;100.00;93913.53;5052428;28;20214;-52
2023/01/21 00:25:46;;;;;;;12.43;7.80;;;;;;;3.76;100.00;93883.19;5052535;28;20225;-54
2023/01/21 00:28:12;;;;;;;12.67;7.83;;;;;;;3.88;100.00;93890.66;5052336;28;20302;-54
2023/01/21 00:30:38;;;;;;;11.80;8.33;;;;;;;3.93;100.00;93888.66;5052317;28;20684;-55
2023/01/21 00:33:04;;;;;;;13.07;9.13;;;;;;;3.92;100.00;93882.00;5052308;28;20212;-56
2023/01/21 00:35:29;;;;;;;11.23;8.33;;;;;;;3.86;100.00;93891.69;5052082;28;20189;-54
2023/01/21 00:37:55;;;;;;;12.37;8.13;;;;;;;3.99;100.00;93915.06;5052284;28;20213;-52
2023/01/21 00:40:21;;;;;;;12.60;8.60;;;;;;;3.76;100.00;93881.50;5051190;28;20244;-55
2023/01/21 00:42:46;;;;;;;13.37;8.77;;;;;;;3.86;100.00;93869.06;5052367;28;20287;-56
2023/01/21 00:45:12;;;;;;;11.77;7.67;;;;;;;4.00;100.00;93856.34;5052192;28;20546;-53
2023/01/21 00:47:44;;;;;;;13.63;9.40;;;;;;;4.02;100.00;93867.09;5051826;28;20241;-52
2023/01/21 00:50:11;;;;;;;13.10;7.50;;;;;;;4.10;100.00;93895.00;5052178;28;20252;-55
2023/01/21 00:52:37;;;;;;;13.20;8.27;;;;;;;4.17;100.00;93911.22;5051153;28;20699;-57
2023/01/21 00:55:04;;;;;;;12.67;8.03;;;;;;;4.12;100.00;93898.19;5051975;28;20255;-56
2023/01/21 00:57:29;;;;;;;18.43;10.37;;;;;;;3.99;100.00;93865.59;5051924;28;20217;-55
2023/01/21 00:59:54;;;;;;;11.93;8.00;;;;;;;3.95;100.00;93879.28;5052170;28;20190;-51
2023/01/21 01:02:20;;;;;;;11.03;7.33;;;;;;;3.96;100.00;93885.91;5051769;28;20200;-53
2023/01/21 01:04:45;;;;;;;10.50;7.87;;;;;;;3.90;100.00;93905.66;5052058;28;20219;-52
2023/01/21 01:07:11;;;;;;;7.90;6.40;;;;;;;3.97;100.00;93912.66;5051594;28;20707;-52
2023/01/21 01:09:36;;;;;;;14.47;7.97;;;;;;;4.06;100.00;93911.19;5051755;28;20197;-56
2023/01/21 01:12:02;;;;;;;10.37;6.93;;;;;;;4.04;100.00;93902.97;5050488;28;20667;-55
2023/01/21 01:14:28;;;;;;;10.67;7.10;;;;;;;4.07;100.00;93890.97;5051534;28;20716;-58
2023/01/21 01:16:53;;;;;;;9.53;7.13;;;;;;;4.09;100.00;93870.75;5051732;28;20193;-53
2023/01/21 01:19:18;;;;;;;11.33;7.30;;;;;;;4.23;100.00;93905.75;5051543;28;20290;-53
2023/01/21 01:21:44;;;;;;;10.63;7.73;;;;;;;4.18;100.00;93890.97;5051520;28;20579;-53
2023/01/21 01:24:11;;;;;;;9.83;7.37;;;;;;;4.01;100.00;93880.53;5051676;28;20213;-55
2023/01/21 01:26:36;;;;;;;10.53;7.20;;;;;;;3.96;100.00;93882.59;5051307;28;20296;-55
2023/01/21 01:29:05;;;;;;;8.77;7.13;;;;;;;3.89;100.00;93856.28;5051394;28;20300;-52
2023/01/21 01:31:31;;;;;;;11.17;7.30;;;;;;;3.97;100.00;93866.59;5051515;28;20220;-51
2023/01/21 01:33:57;;;;;;;12.23;7.90;;;;;;;3.96;100.00;93863.28;5051301;28;20210;-55
2023/01/21 01:36:22;;;;;;;8.30;5.33;;;;;;;4.04;100.00;93900.47;5051441;28;20619;-53
2023/01/21 01:38:49;;;;;;;9.87;7.00;;;;;;;3.87;100.00;93838.81;5050139;28;20206;-55
2023/01/21 01:41:27;;;;;;;9.17;6.60;;;;;;;3.87;100.00;93863.94;5051744;28;20710;-56
2023/01/21 01:43:52;;;;;;;9.87;6.10;;;;;;;3.87;100.00;93870.69;5066754;28;20220;-59
2023/01/21 01:46:19;;;;;;;9.17;6.27;;;;;;;3.93;100.00;93867.72;5050267;28;20229;-55
2023/01/21 01:48:50;;;;;;;7.20;5.63;;;;;;;4.03;100.00;93856.09;5051450;28;20224;-56
2023/01/21 01:51:21;;;;;;;8.37;6.43;;;;;;;4.00;100.00;93838.72;5051216;28;20192;-56
2023/01/21 01:53:47;;;;;;;7.87;5.67;;;;;;;4.07;100.00;93834.84;5051148;28;20628;-57
2023/01/21 01:56:14;;;;;;;9.20;5.83;;;;;;;4.06;100.00;93866.72;5051210;28;20268;-56
2023/01/21 01:58:40;;;;;;;6.80;5.53;;;;;;;3.76;100.00;93835.44;5051043;28;20583;-53
2023/01/21 02:01:06;;;;;;;7.03;5.67;;;;;;;3.74;100.00;93799.56;5051018;28;20193;-52
2023/01/21 02:03:44;;;;;;;7.30;5.50;;;;;;;4.06;100.00;93843.31;5050986;28;20633;-55
2023/01/21 02:06:15;;;;;;;10.20;6.43;;;;;;;4.03;100.00;93849.38;5051351;28;20213;-52
2023/01/21 02:08:43;;;;;;;7.87;5.77;;;;;;;3.77;100.00;93821.97;5051222;28;20215;-57
2023/01/21 02:11:19;;;;;;;8.47;6.00;;;;;;;3.95;100.00;93841.56;5051324;28;20251;-53
2023/01/21 02:13:55;;;;;;;7.50;6.00;;;;;;;3.74;100.00;93809.63;5050889;28;20211;-54
2023/01/21 02:16:38;;;;;;;6.67;5.20;;;;;;;3.93;100.00;93817.44;5050742;28;20193;-55
2023/01/21 02:19:13;;;;;;;8.47;5.57;;;;;;;3.96;100.00;93805.44;5050622;28;20277;-56
2023/01/21 02:22:07;;;;;;;9.67;6.00;;;;;;;3.94;100.00;93804.75;5066122;28;20687;-56
2023/01/21 02:24:41;;;;;;;8.03;5.63;;;;;;;3.97;100.00;93834.72;5050932;28;20671;-56
2023/01/21 02:27:34;;;;;;;6.93;5.33;;;;;;;3.68;100.00;93783.22;5050743;28;20276;-55
2023/01/21 02:30:26;;;;;;;9.70;6.70;;;;;;;3.56;100.00;93751.44;5050717;28;20281;-58
2023/01/21 02:33:12;;;;;;;8.67;5.47;;;;;;;3.65;100.00;93772.59;5050703;28;20216;-54
2023/01/21 02:35:40;;;;;;;7.93;6.10;;;;;;;3.54;100.00;93760.00;5050697;28;20692;-53
2023/01/21 02:38:27;;;;;;;7.83;5.80;;;;;;;3.65;100.00;93788.50;5050535;28;20213;-55
2023/01/21 02:41:00;;;;;;;6.33;5.53;;;;;;;3.43;100.00;93748.25;5050732;28;20567;-54
2023/01/21 02:43:50;;;;;;;9.77;6.10;;;;;;;3.35;100.00;93753.00;5050566;28;20224;-53
2023/01/21 02:46:27;;;;;;;7.63;5.43;;;;;;;3.06;100.00;93755.06;5050512;28;20706;-54
2023/01/21 02:48:58;;;;;;;11.27;6.93;;;;;;;3.14;100.00;93750.31;5050702;28;20209;-52
2023/01/21 02:51:24;;;;;;;10.70;6.90;;;;;;;3.23;100.00;93751.38;5050540;28;20185;-53
2023/01/21 02:53:49;;;;;;;10.27;6.47;;;;;;;3.26;100.00;93761.19;5050394;28;20214;-53
2023/01/21 02:56:19;;;;;;;11.23;6.30;;;;;;;3.22;100.00;93760.59;5050203;28;20202;-52
2023/01/21 02:58:57;;;;;;;10.40;6.67;;;;;;;3.12;100.00;93754.63;5068642;28;20214;-55
2023/01/21 03:01:34;;;;;;;9.00;6.47;;;;;;;3.23;100.00;93757.16;5054028;28;20280;-53
2023/01/21 03:04:18;;;;;;;8.07;5.43;;;;;;;3.33;100.00;93754.81;5053742;28;20194;-55
2023/01/21 03:07:28;;;;;;;7.27;5.30;;;;;;;3.22;100.00;93743.03;5053701;28;20296;-55
2023/01/21 03:10:05;;;;;;;7.37;4.90;;;;;;;3.16;100.00;93740.94;5053883;28;20188;-56
2023/01/21 03:13:05;;;;;;;7.93;5.90;;;;;;;3.18;100.00;93739.13;5053870;28;20208;-52
2023/01/21 03:18:38;;;;;;;8.13;5.50;;;;;;;3.19;100.00;93750.75;5053537;28;20298;-54
2023/01/21 03:21:12;;;;;;;7.97;5.87;;;;;;;3.17;100.00;93732.50;5054166;28;20585;-53
2023/01/21 03:23:40;;;;;;;7.83;5.40;;;;;;;3.21;100.00;93748.16;5053348;28;20204;-54
2023/01/21 03:26:08;;;;;;;7.93;5.90;;;;;;;3.17;100.00;93722.44;5053378;28;20216;-55
2023/01/21 03:28:38;;;;;;;8.07;4.73;;;;;;;3.24;100.00;93727.84;5052140;28;20207;-55
2023/01/21 03:31:09;;;;;;;7.77;5.87;;;;;;;3.19;100.00;93720.63;5053416;28;20227;-55
2023/01/21 03:33:39;;;;;;;8.13;5.70;;;;;;;3.01;100.00;93699.34;5053390;28;20236;-52
2023/01/21 03:36:32;;;;;;;8.33;5.30;;;;;;;3.10;100.00;93705.44;5053647;28;20194;-52
2023/01/21 03:39:00;;;;;;;7.73;5.43;;;;;;;3.16;100.00;93718.34;5053278;28;20211;-54
2023/01/21 03:41:32;;;;;;;20.07;12.53;;;;;;;3.10;100.00;93707.94;5053325;28;20536;-54
2023/01/21 03:43:59;;;;;;;10.03;6.47;;;;;;;3.20;100.00;93713.91;5053119;28;20213;-52
2023/01/21 03:46:24;;;;;;;11.10;6.03;;;;;;;3.27;100.00;93722.63;5053048;28;20252;-56
2023/01/21 03:49:17;;;;;;;12.00;6.87;;;;;;;3.13;100.00;93708.53;5052922;28;20654;-52
2023/01/21 03:51:50;;;;;;;8.93;6.37;;;;;;;3.18;100.00;93693.94;5046605;28;20214;-52
2023/01/21 03:54:15;;;;;;;9.07;5.60;;;;;;;3.12;100.00;93686.84;5053089;28;20216;-53
2023/01/21 03:56:41;;;;;;;11.17;6.43;;;;;;;3.14;100.00;93690.06;5051741;28;20195;-52
2023/01/21 03:59:06;;;;;;;19.43;11.97;;;;;;;3.11;100.00;93666.88;5052966;28;20679;-51
2023/01/21 04:01:32;;;;;;;37.87;24.77;;;;;;;3.04;100.00;93679.06;5053074;28;20186;-54
2023/01/21 04:03:57;;;;;;;23.47;12.80;;;;;;;3.14;100.00;93695.06;5052717;28;20327;-55
2023/01/21 04:06:23;;;;;;;11.37;6.80;;;;;;;3.15;100.00;93695.88;5052857;28;20690;-56
2023/01/21 04:08:48;;;;;;;6.93;5.23;;;;;;;3.16;100.00;93684.91;5051961;28;20274;-56
2023/01/21 04:11:14;;;;;;;10.00;5.17;;;;;;;3.20;100.00;93687.09;5052622;28;20198;-55
2023/01/21 04:13:40;;;;;;;7.23;5.03;;;;;;;3.25;100.00;93689.28;5052729;28;20218;-56
2023/01/21 04:16:06;;;;;;;8.23;5.50;;;;;;;3.27;100.00;93697.50;5052771;28;20204;-56
2023/01/21 04:18:31;;;;;;;6.53;5.43;;;;;;;3.24;100.00;93692.69;5052468;28;20702;-52
2023/01/21 04:20:57;;;;;;;6.73;5.07;;;;;;;3.26;100.00;93690.88;5052538;28;20190;-56
2023/01/21 04:23:22;;;;;;;8.07;5.53;;;;;;;3.46;100.00;93700.28;5052460;28;20592;-51
2023/01/21 04:25:49;;;;;;;8.93;5.13;;;;;;;3.63;100.00;93699.06;5052775;28;20193;-53
2023/01/21 04:28:15;;;;;;;9.67;6.03;;;;;;;3.55;100.00;93706.34;5052427;28;20217;-57
2023/01/21 04:30:40;;;;;;;8.63;5.27;;;;;;;3.45;100.00;93707.94;5051233;28;20199;-56
2023/01/21 04:33:06;;;;;;;9.80;6.13;;;;;;;3.24;100.00;93703.56;5052388;28;20289;-55
2023/01/21 04:35:34;;;;;;;10.90;6.40;;;;;;;3.13;100.00;93690.94;5052370;28;20196;-56
2023/01/21 04:37:59;;;;;;;10.47;6.20;;;;;;;3.21;100.00;93701.25;5052201;28;20265;-56
2023/01/21 04:40:25;;;;;;;9.90;6.53;;;;;;;3.38;100.00;93715.91;5052120;28;20201;-56
2023/01/21 04:42:50;;;;;;;10.70;5.90;;;;;;;3.47;100.00;93728.72;5052243;28;20302;-53
2023/01/21 04:45:16;;;;;;;10.03;6.70;;;;;;;3.51;100.00;93712.50;5052056;28;20197;-51
2023/01/21 04:47:43;;;;;;;8.90;6.10;;;;;;;3.45;100.00;93715.47;5067530;28;20220;-53
2023/01/21 04:50:10;;;;;;;7.67;5.77;;;;;;;3.48;100.00;93723.56;5052306;28;20258;-57
2023/01/21 04:52:36;;;;;;;8.13;5.60;;;;;;;3.50;100.00;93731.81;5050555;28;20654;-56
2023/01/21 04:55:02;;;;;;;10.03;6.17;;;;;;;3.30;100.00;93705.63;5067549;28;20574;-53
2023/01/21 04:57:28;;;;;;;8.70;6.30;;;;;;;3.69;100.00;93764.75;5052093;28;20290;-56
2023/01/21 04:59:53;;;;;;;10.77;7.23;;;;;;;3.50;100.00;93715.91;5051931;28;20193;-57
2023/01/21 05:02:19;;;;;;;10.67;5.87;;;;;;;3.72;100.00;93746.09;5051798;28;20699;-52
2023/01/21 05:04:44;;;;;;;10.37;6.60;;;;;;;3.81;100.00;93742.94;5050762;28;20661;-51
2023/01/21 05:07:12;;;;;;;9.73;5.17;;;;;;;3.48;100.00;93715.22;5051756;28;20574;-55
2023/01/21 05:09:37;;;;;;;8.53;4.27;;;;;;;3.79;100.00;93759.84;5050785;28;20199;-55
2023/01/21 05:12:03;;;;;;;8.80;5.17;;;;;;;3.91;100.00;93756.44;5051849;28;20197;-55
2023/01/21 05:14:29;;;;;;;7.40;5.60;;;;;;;3.92;100.00;93773.91;5051541;28;20298;-55
2023/01/21 05:16:54;;;;;;;8.23;5.50;;;;;;;3.89;100.00;93780.88;5051665;28;20667;-52
2023/01/21 05:19:20;;;;;;;6.80;5.00;;;;;;;3.89;100.00;93789.22;5051724;28;20294;-56
2023/01/21 05:21:45;;;;;;;9.43;5.50;;;;;;;3.91;100.00;93781.56;5051515;28;20716;-57
2023/01/21 05:24:11;;;;;;;7.13;4.73;;;;;;;3.97;100.00;93797.00;5051515;28;20608;-53
2023/01/21 05:26:36;;;;;;;8.60;5.00;;;;;;;4.02;100.00;93782.38;5051253;28;20217;-52
2023/01/21 05:29:02;;;;;;;8.03;5.33;;;;;;;3.98;100.00;93760.88;5051470;28;20224;-53
2023/01/21 05:31:27;;;;;;;8.30;4.73;;;;;;;4.25;100.00;93790.75;5051592;28;20192;-52
2023/01/21 05:33:55;;;;;;;6.70;4.90;;;;;;;4.16;100.00;93814.84;5051377;28;20279;-52
2023/01/21 05:36:21;;;;;;;6.93;5.07;;;;;;;3.98;100.00;93797.81;5051717;28;20209;-56
2023/01/21 05:38:46;;;;;;;6.53;4.63;;;;;;;4.35;100.00;93823.56;5051532;28;20207;-55
2023/01/21 05:41:12;;;;;;;7.30;4.77;;;;;;;4.42;100.00;93834.78;5051421;28;20675;-56
2023/01/21 05:43:37;;;;;;;7.30;4.87;;;;;;;4.42;100.00;93819.69;5051389;28;20262;-56
2023/01/21 05:46:02;;;;;;;7.17;5.03;;;;;;;4.43;100.00;93826.31;5051293;28;20349;-57
2023/01/21 05:48:28;;;;;;;8.50;5.40;;;;;;;4.35;100.00;93808.47;5051234;28;20210;-56
2023/01/21 05:50:53;;;;;;;7.23;5.03;;;;;;;4.09;100.00;93783.53;5051149;28;20194;-55
2023/01/21 05:53:19;;;;;;;8.30;5.17;;;;;;;4.09;100.00;93765.13;5051126;28;20591;-55
2023/01/21 05:55:45;;;;;;;7.17;4.53;;;;;;;4.26;100.00;93798.16;5050056;28;20654;-57
2023/01/21 05:58:11;;;;;;;10.53;4.93;;;;;;;4.26;100.00;93835.13;5049802;28;20207;-57
2023/01/21 06:00:36;;;;;;;6.47;4.30;;;;;;;4.46;100.00;93864.63;5051417;28;20586;-53
2023/01/21 06:03:03;;;;;;;7.20;5.07;;;;;;;4.31;100.00;93835.56;5051273;28;20226;-56
2023/01/21 06:05:29;;;;;;;8.77;5.70;;;;;;;4.20;100.00;93795.34;5051601;28;20192;-56
2023/01/21 06:07:55;;;;;;;10.17;6.40;;;;;;;3.98;100.00;93786.03;5051201;28;20308;-52
2023/01/21 06:10:20;;;;;;;9.27;5.80;;;;;;;3.69;100.00;93749.66;5051031;28;20645;-55
2023/01/21 06:12:49;;;;;;;9.80;6.50;;;;;;;4.18;100.00;93805.47;5051148;28;20731;-55
2023/01/21 06:15:15;;;;;;;9.63;6.10;;;;;;;4.37;100.00;93830.09;5051368;28;20182;-53
2023/01/21 06:17:40;;;;;;;11.63;6.63;;;;;;;4.35;100.00;93831.91;5050873;28;20212;-55
2023/01/21 06:20:07;;;;;;;9.50;7.00;;;;;;;4.24;100.00;93830.19;5051008;28;20191;-56
2023/01/21 06:22:32;;;;;;;11.47;7.70;;;;;;;4.06;100.00;93820.69;5050740;28;20213;-56
2023/01/21 06:24:58;;;;;;;16.73;7.93;;;;;;;4.07;100.00;93812.22;5050779;28;20181;-56
2023/01/21 06:27:24;;;;;;;13.73;8.97;;;;;;;4.06;100.00;93820.69;5050894;28;20205;-56
2023/01/21 06:29:49;;;;;;;12.07;8.17;;;;;;;4.13;100.00;93821.81;5032945;28;20207;-58
2023/01/21 06:32:15;;;;;;;11.03;7.90;;;;;;;4.19;100.00;93819.66;5051399;28;20200;-54
2023/01/21 06:34:41;;;;;;;12.00;7.40;;;;;;;4.30;100.00;93825.63;5053159;28;20224;-53
2023/01/21 06:37:06;;;;;;;13.47;8.83;;;;;;;4.31;100.00;93830.53;5054210;28;20706;-56
2023/01/21 06:39:32;;;;;;;12.37;8.30;;;;;;;4.41;100.00;93833.97;5054215;28;20195;-54
2023/01/21 06:41:58;;;;;;;14.80;8.20;;;;;;;4.35;100.00;93831.09;5054057;28;20188;-54
2023/01/21 06:44:23;;;;;;;11.90;7.67;;;;;;;4.27;100.00;93864.38;5052857;28;20216;-55
2023/01/21 06:46:48;;;;;;;11.03;6.30;;;;;;;4.23;100.00;93850.41;5054172;28;20228;-53
2023/01/21 06:49:14;;;;;;;9.27;5.60;;;;;;;4.28;100.00;93809.84;5054149;28;20208;-57
2023/01/21 06:51:39;;;;;;;11.13;5.77;;;;;;;4.41;100.00;93828.94;5052739;28;20185;-55
2023/01/21 06:54:06;;;;;;;11.80;5.00;;;;;;;4.33;100.00;93831.22;5052404;28;20756;-53
2023/01/21 06:56:31;;;;;;;7.70;5.53;;;;;;;4.33;100.00;93823.69;5052852;28;20202;-53
2023/01/21 06:58:57;;;;;;;7.47;5.27;;;;;;;4.42;100.00;93845.66;5053501;28;20603;-52
2023/01/21 07:01:22;;;;;;;8.47;4.50;;;;;;;4.55;100.00;93851.38;5053708;28;20198;-54
2023/01/21 07:03:48;;;;;;;7.23;4.53;;;;;;;4.72;100.00;93882.84;5053750;28;20207;-55
2023/01/21 07:06:13;;;;;;;5.07;4.27;;;;;;;4.77;100.00;93896.66;5053715;28;20240;-56
2023/01/21 07:08:38;;;;;;;6.00;4.40;;;;;;;4.92;100.00;93898.06;5053589;28;20278;-55
2023/01/21 07:11:04;;;;;;;4.30;3.63;;;;;;;5.00;100.00;93915.09;5053750;28;20207;-56
2023/01/21 07:13:30;;;;;;;7.57;3.93;;;;;;;5.01;100.00;93883.94;5053607;28;20209;-54
2023/01/21 07:15:59;;;;;;;7.57;4.40;;;;;;;5.29;100.00;93921.28;5053526;28;20204;-52
2023/01/21 07:18:25;;;;;;;5.90;4.43;;;;;;;5.38;100.00;93902.13;5053558;28;20733;-54
2023/01/21 07:20:51;;;;;;;5.83;4.63;;;;;;;5.37;100.00;93892.97;5053819;28;20204;-53
2023/01/21 07:23:16;;;;;;;16.47;6.63;;;;;;;5.61;100.00;93936.44;5053292;28;20312;-54
2023/01/21 07:25:42;;;;;;;12.57;6.83;;;;;;;5.42;100.00;93911.84;5035608;28;20281;-55
2023/01/21 07:28:07;;;;;;;12.20;6.17;;;;;;;5.64;100.00;93942.03;5053064;28;20634;-56
2023/01/21 07:30:33;;;;;;;13.73;6.43;;;;;;;5.74;100.00;93939.59;5053206;28;20194;-53
2023/01/21 07:33:07;;;;;;;10.67;6.90;;;;;;;5.60;100.00;93920.50;5052474;28;20662;-54
2023/01/21 07:35:34;;;;;;;13.53;6.27;;;;;;;5.79;100.00;93788.78;5052666;28;20189;-56
2023/01/21 07:37:59;;;;;;;13.37;7.07;;;;;;;5.85;100.00;93932.88;5050984;28;20213;-53
2023/01/21 07:40:24;;;;;;;12.87;7.37;;;;;;;5.87;100.00;93928.50;5049591;28;20666;-53
2023/01/21 07:42:51;;;;;;;12.47;6.83;;;;;;;5.89;100.00;93911.53;5051716;28;20269;-53
2023/01/21 07:45:17;;;;;;;9.73;6.70;;;;;;;6.00;100.00;93951.03;5053507;28;20204;-54
2023/01/21 07:47:43;;;;;;;14.80;7.03;;;;;;;6.00;100.00;93942.66;5053048;28;20593;-56
2023/01/21 07:50:09;;;;;;;10.53;6.30;;;;;;;5.89;100.00;93923.31;5053304;28;20193;-53
2023/01/21 07:52:34;;;;;;;8.87;6.10;;;;;;;5.84;100.00;93926.19;5068353;28;20279;-53
2023/01/21 07:55:00;;;;;;;11.17;5.67;;;;;;;6.05;100.00;93948.94;5053139;28;20705;-57
2023/01/21 07:57:26;;;;;;;6.30;4.80;;;;;;;6.04;100.00;93977.59;5052908;28;20259;-55
2023/01/21 07:59:51;;;;;;;6.90;5.00;;;;;;;6.06;100.00;93948.00;5052914;28;20562;-53
2023/01/21 08:02:17;;;;;;;7.47;4.70;;;;;;;5.90;100.00;93919.88;5052810;28;20182;-54
2023/01/21 08:04:42;;;;;;;8.07;5.93;;;;;;;6.06;100.00;93927.84;5053108;28;20189;-52
2023/01/21 08:07:08;;;;;;;13.30;6.43;;;;;;;6.23;100.00;93962.63;5067997;28;20766;-52
2023/01/21 08:09:37;;;;;;;11.53;5.83;;;;;;;6.28;100.00;93937.03;5052842;28;20192;-57
2023/01/21 08:12:04;;;;;;;11.97;7.53;;;;;;;6.37;100.00;93952.25;5051536;28;20710;-56
2023/01/21 08:14:30;;;;;;;16.60;7.50;;;;;;;6.31;100.00;93926.69;5052664;28;20619;-54
2023/01/21 08:16:55;;;;;;;11.77;7.00;;;;;;;6.34;100.00;93949.19;5052589;28;20191;-54
2023/01/21 08:19:21;;;;;;;11.20;5.93;;;;;;;6.51;100.00;93948.63;5052346;28;20216;-57
2023/01/21 08:21:46;;;;;;;10.93;6.43;;;;;;;6.58;100.00;93925.31;5052428;28;20220;-55
2023/01/21 08:24:12;;;;;;;11.07;6.60;;;;;;;6.90;100.00;93942.88;5052291;28;20206;-54
2023/01/21 08:26:37;;;;;;;11.97;5.80;;;;;;;7.14;100.00;93995.66;5052276;28;20216;-55
2023/01/21 08:29:03;;;;;;;8.00;5.97;;;;;;;6.96;100.00;93990.38;5052521;28;20205;-57
2023/01/21 08:31:28;;;;;;;8.93;5.67;;;;;;;6.94;100.00;94009.09;5052573;28;20193;-53
2023/01/21 08:33:54;;;;;;;9.67;5.60;;;;;;;7.06;100.00;94008.91;5052203;28;20286;-53
2023/01/21 08:36:19;;;;;;;8.07;4.90;;;;;;;7.00;100.00;94006.06;5052538;28;20254;-53
2023/01/21 08:38:45;;;;;;;9.77;5.27;;;;;;;7.19;100.00;94018.84;5052146;28;20208;-57
2023/01/21 08:41:11;;;;;;;8.20;4.80;;;;;;;7.54;100.00;94015.00;5052733;28;20561;-54
2023/01/21 08:43:39;;;;;;;8.53;5.13;;;;;;;7.81;100.00;94085.25;5052258;28;20238;-53
2023/01/21 08:46:05;;;;;;;11.10;4.87;;;;;;;7.88;100.00;94053.44;5067437;28;20190;-54
2023/01/21 08:48:30;;;;;;;6.50;4.30;;;;;;;7.68;100.00;94041.66;5052002;28;20208;-54
2023/01/21 08:51:02;;;;;;;7.23;4.03;;;;;;;7.80;100.00;94062.63;5051706;28;20196;-54
2023/01/21 08:53:28;;;;;;;3.73;2.53;;;;;;;8.64;100.00;94148.28;5050069;28;20701;-53
2023/01/21 08:55:58;;;;;;;3.57;2.97;;;;;;;8.90;100.00;94190.75;5050379;28;20212;-52
2023/01/21 08:58:23;;;;;;;4.27;2.37;;;;;;;9.12;100.00;94197.28;5065944;28;20217;-58
2023/01/21 09:00:50;;;;;;;2.87;2.53;;;;;;;9.59;100.00;94157.63;5050376;28;20636;-56
2023/01/21 09:03:18;;;;;;;2.23;2.03;;;;;;;10.30;100.00;94229.91;5049854;28;20258;-52
2023/01/21 09:05:44;;;;;;;4.60;2.33;;;;;;;10.51;100.00;94254.19;5051878;28;20285;-53
2023/01/21 09:08:09;;;;;;;3.37;2.13;;;;;;;10.12;100.00;94217.94;5051333;28;20419;-52
2023/01/21 09:13:18;;;;;;;3.87;2.10;;;;;;;9.74;100.00;94186.72;5051100;28;20216;-52
2023/01/21 09:15:44;;;;;;;2.03;1.90;;;;;;;9.76;100.00;94179.75;5051947;28;20198;-56
2023/01/21 09:18:11;;;;;;;3.83;2.50;;;;;;;8.47;100.00;94038.25;5050907;28;20201;-57
2023/01/21 09:20:37;;;;;;;2.80;2.00;;;;;;;8.57;100.00;94025.59;5051159;28;20295;-56
2023/01/21 09:23:22;;;;;;;2.37;1.70;;;;;;;8.53;100.00;94022.53;5049785;28;20201;-56
2023/01/21 09:25:49;;;;;;;2.73;1.87;;;;;;;8.31;100.00;94000.00;5066904;28;20181;-56
2023/01/21 09:28:15;;;;;;;2.87;2.37;;;;;;;8.73;100.00;94033.47;5051181;28;20370;-57
2023/01/21 09:30:40;;;;;;;4.20;2.50;;;;;;;8.63;100.00;94046.13;5050857;28;20632;-57
2023/01/21 09:33:06;;;;;;;5.53;2.47;;;;;;;8.65;100.00;94015.59;5051023;28;20378;-56
2023/01/21 09:35:31;;;;;;;3.00;2.40;;;;;;;8.58;100.00;94042.41;5051223;28;20247;-55
2023/01/21 09:37:56;;;;;;;3.60;2.20;;;;;;;8.22;100.00;93981.31;5050970;28;20213;-53
2023/01/21 09:40:22;;;;;;;2.10;1.90;;;;;;;8.37;100.00;94015.47;5051608;28;20197;-56
2023/01/21 09:42:47;;;;;;;3.13;2.10;;;;;;;8.13;100.00;93979.56;5051075;28;20201;-55
2023/01/21 09:45:14;;;;;;;2.67;2.10;;;;;;;8.11;100.00;93958.66;5051478;28;20670;-52
2023/01/21 09:47:43;;;;;;;2.30;1.90;;;;;;;7.79;100.00;93932.78;5049856;28;20747;-56
2023/01/21 09:50:17;;;;;;;2.10;1.73;;;;;;;8.64;100.00;94021.59;5051246;28;20578;-53
2023/01/21 09:52:45;;;;;;;4.73;2.40;;;;;;;9.10;100.00;94035.16;5051388;28;20209;-55
2023/01/21 09:55:16;;;;;;;2.10;1.90;;;;;;;9.33;100.00;94111.75;5051072;28;20296;-54
2023/01/21 09:58:06;;;;;;;2.43;1.77;;;;;;;9.58;100.00;94110.34;5050710;28;20243;-55
2023/01/21 10:00:47;;;;;;;3.50;2.23;;;;;;;10.17;100.00;94067.69;5051369;28;20201;-56
2023/01/21 10:03:23;;;;;;;4.60;2.93;;;;;;;10.42;100.00;94166.09;5051080;28;20300;-56
2023/01/21 10:05:52;;;;;;;2.60;2.03;;;;;;;10.38;100.00;94181.75;5051347;28;20201;-57
2023/01/21 10:08:23;;;;;;;3.60;2.10;;;;;;;10.94;100.00;94240.88;5049756;28;20209;-57
2023/01/21 10:11:03;;;;;;;4.43;2.07;;;;;;;10.85;100.00;94185.78;5050978;28;20197;-55
2023/01/21 10:13:53;;;;;;;2.97;2.03;;;;;;;11.04;100.00;94234.00;5050860;28;20291;-57
2023/01/21 10:16:29;;;;;;;3.57;1.90;;;;;;;10.80;100.00;94209.09;5050744;28;20194;-56
2023/01/21 10:18:57;;;;;;;5.20;1.97;;;;;;;11.15;100.00;94185.44;5050768;28;20201;-57
2023/01/21 10:21:32;;;;;;;2.00;1.77;;;;;;;11.33;100.00;94178.59;5050896;28;20606;-58
2023/01/21 10:24:30;;;;;;;2.20;1.70;;;;;;;11.84;100.00;94131.31;5050873;28;20212;-55
2023/01/21 10:26:57;;;;;;;1.93;1.60;;;;;;;11.68;81.72;94199.00;5050554;28;20231;-55
2023/01/21 10:29:24;;;;;;;4.63;2.00;;;;;;;12.03;80.70;94205.75;5050756;28;20275;-56
2023/01/21 10:31:58;;;;;;;5.07;2.20;;;;;;;11.80;79.89;94218.19;5050542;28;20271;-55
2023/01/21 10:34:28;;;;;;;3.23;2.00;;;;;;;11.82;75.33;94233.31;5066017;28;20243;-51
2023/01/21 10:37:36;;;;;;;2.30;2.10;;;;;;;12.16;76.04;94215.56;5050494;28;20199;-58
2023/01/21 10:40:41;;;;;;;1.77;1.60;;;;;;;12.22;73.63;94248.09;5021238;28;20294;-53
2023/01/21 10:43:09;;;;;;;3.73;2.00;;;;;;;12.54;73.10;94272.00;5050149;28;20208;-54
2023/01/21 10:45:34;;;;;;;2.70;2.13;;;;;;;13.05;71.65;94296.69;5041324;28;20681;-58
2023/01/21 10:48:06;;;;;;;1.77;1.47;;;;;;;13.55;72.17;94249.91;5029008;28;20297;-60
2023/01/21 10:51:15;;;;;;;1.93;1.73;;;;;;;13.26;71.35;94242.69;5029325;28;20205;-54
2023/01/21 10:53:49;;;;;;;3.20;1.57;;;;;;;13.57;67.85;94350.97;5030393;28;20221;-60
2023/01/21 10:56:33;;;;;;;1.70;1.57;;;;;;;13.77;69.44;94293.53;5030770;28;20179;-62
2023/01/21 10:59:20;;;;;;;2.77;1.63;;;;;;;13.28;68.89;94284.16;5030164;28;20714;-59
2023/01/21 11:01:52;;;;;;;2.80;1.90;;;;;;;12.77;70.54;94241.69;5029409;28;20167;-57
2023/01/21 11:04:20;;;;;;;1.73;1.63;;;;;;;12.72;72.68;94171.69;5029961;28;20226;-54
2023/01/21 11:07:00;;;;;;;1.67;1.57;;;;;;;12.48;72.16;94165.53;5029506;28;20765;-53
2023/01/21 11:09:30;;;;;;;2.70;1.50;;;;;;;12.41;72.89;94151.00;5029598;28;20757;-56
2023/01/21 11:11:56;;;;;;;2.33;1.80;;;;;;;12.21;73.70;94122.44;5029504;28;20626;-57
2023/01/21 11:14:24;;;;;;;3.53;1.80;;;;;;;12.37;71.78;94168.38;5029988;28;20214;-58
2023/01/21 11:16:51;;;;;;;1.80;1.70;;;;;;;12.39;71.77;94180.97;5029934;28;20178;-58
2023/01/21 11:19:22;;;;;;;1.53;1.40;;;;;;;13.02;71.43;94184.69;5032011;28;20210;-56
2023/01/21 11:22:15;;;;;;;2.03;1.73;;;;;;;13.56;69.30;94252.31;5033604;28;20285;-56
2023/01/21 11:24:50;;;;;;;2.43;1.70;;;;;;;13.68;69.17;94250.25;5033475;28;20220;-53
2023/01/21 11:27:21;;;;;;;3.83;1.63;;;;;;;14.50;67.55;94307.16;5032464;28;20206;-57
2023/01/21 11:29:49;;;;;;;3.00;1.50;;;;;;;14.48;64.98;94364.53;5033759;28;20209;-57
2023/01/21 11:32:20;;;;;;;2.97;1.53;;;;;;;14.82;62.93;94400.97;5033306;28;20260;-54
2023/01/21 11:34:49;;;;;;;2.40;2.20;;;;;;;14.71;63.83;94357.78;5033615;28;20194;-53
2023/01/21 11:37:23;;;;;;;2.17;1.97;;;;;;;14.18;65.90;94286.69;5033186;28;20189;-52
2023/01/21 11:39:58;;;;;;;2.10;1.67;;;;;;;13.92;65.49;94286.03;5033285;28;20190;-53
2023/01/21 11:42:24;;;;;;;2.17;1.27;;;;;;;13.79;66.17;94265.28;5033142;28;20277;-54
2023/01/21 11:44:54;;;;;;;2.80;1.90;;;;;;;14.51;67.82;94221.78;5033327;28;20202;-54